sensor_id;sensor_type;location;lat;lon;timestamp;temperature;humidity
55634;DHT22;41504;53.162;6.788;2023-05-23T00:01:21;14.10;94.40
55634;DHT22;41504;53.162;6.788;2023-05-23T00:03:47;14.00;94.50
55634;DHT22;41504;53.162;6.788;2023-05-23T00:06:13;14.00;94.50
55634;DHT22;41504;53.162;6.788;2023-05-23T00:08:39;14.00;94.50
55634;DHT22;41504;53.162;6.788;2023-05-23T00:11:05;14.00;94.60
55634;DHT22;41504;53.162;6.788;2023-05-23T00:13:31;14.00;94.60
55634;DHT22;41504;53.162;6.788;2023-05-23T00:15:59;13.90;94.80
55634;DHT22;41504;53.162;6.788;2023-05-23T00:18:25;13.90;95.00
55634;DHT22;41504;53.162;6.788;2023-05-23T00:20:50;13.80;95.10
55634;DHT22;41504;53.162;6.788;2023-05-23T00:23:16;13.80;95.10
55634;DHT22;41504;53.162;6.788;2023-05-23T00:25:46;13.80;95.20
55634;DHT22;41504;53.162;6.788;2023-05-23T00:28:18;13.80;95.20
55634;DHT22;41504;53.162;6.788;2023-05-23T00:30:44;13.80;95.20
55634;DHT22;41504;53.162;6.788;2023-05-23T00:33:10;13.90;95.30
55634;DHT22;41504;53.162;6.788;2023-05-23T00:35:39;13.90;95.20
55634;DHT22;41504;53.162;6.788;2023-05-23T00:38:05;13.90;95.30
55634;DHT22;41504;53.162;6.788;2023-05-23T00:40:33;13.90;95.40
55634;DHT22;41504;53.162;6.788;2023-05-23T00:42:59;13.90;95.70
55634;DHT22;41504;53.162;6.788;2023-05-23T00:45:25;13.90;95.60
55634;DHT22;41504;53.162;6.788;2023-05-23T00:47:51;13.90;95.80
55634;DHT22;41504;53.162;6.788;2023-05-23T00:50:17;13.90;95.80
55634;DHT22;41504;53.162;6.788;2023-05-23T00:52:44;13.90;95.70
55634;DHT22;41504;53.162;6.788;2023-05-23T00:55:11;13.90;95.70
55634;DHT22;41504;53.162;6.788;2023-05-23T00:57:37;13.90;95.60
55634;DHT22;41504;53.162;6.788;2023-05-23T01:00:10;13.90;95.50
55634;DHT22;41504;53.162;6.788;2023-05-23T01:02:43;13.90;95.40
55634;DHT22;41504;53.162;6.788;2023-05-23T01:05:10;14.00;95.40
55634;DHT22;41504;53.162;6.788;2023-05-23T01:07:39;14.00;95.20
55634;DHT22;41504;53.162;6.788;2023-05-23T01:10:06;14.00;95.30
55634;DHT22;41504;53.162;6.788;2023-05-23T01:12:47;13.90;95.30
55634;DHT22;41504;53.162;6.788;2023-05-23T01:15:17;13.90;95.30
55634;DHT22;41504;53.162;6.788;2023-05-23T01:20:20;13.80;95.30
55634;DHT22;41504;53.162;6.788;2023-05-23T01:25:44;13.80;95.30
55634;DHT22;41504;53.162;6.788;2023-05-23T01:28:18;13.80;95.30
55634;DHT22;41504;53.162;6.788;2023-05-23T01:30:45;13.80;95.20
55634;DHT22;41504;53.162;6.788;2023-05-23T01:33:15;13.70;95.30
55634;DHT22;41504;53.162;6.788;2023-05-23T01:35:42;13.70;95.50
55634;DHT22;41504;53.162;6.788;2023-05-23T01:38:08;13.60;95.40
55634;DHT22;41504;53.162;6.788;2023-05-23T01:40:35;13.60;95.40
55634;DHT22;41504;53.162;6.788;2023-05-23T01:43:01;13.60;95.40
55634;DHT22;41504;53.162;6.788;2023-05-23T01:45:28;13.60;95.30
55634;DHT22;41504;53.162;6.788;2023-05-23T01:47:55;13.60;95.40
55634;DHT22;41504;53.162;6.788;2023-05-23T01:50:22;13.50;95.50
55634;DHT22;41504;53.162;6.788;2023-05-23T01:52:49;13.50;95.70
55634;DHT22;41504;53.162;6.788;2023-05-23T01:55:16;13.50;95.60
55634;DHT22;41504;53.162;6.788;2023-05-23T01:57:50;13.40;95.60
55634;DHT22;41504;53.162;6.788;2023-05-23T02:00:16;13.30;95.60
55634;DHT22;41504;53.162;6.788;2023-05-23T02:02:42;13.30;95.70
55634;DHT22;41504;53.162;6.788;2023-05-23T02:05:09;13.20;95.90
55634;DHT22;41504;53.162;6.788;2023-05-23T02:07:36;13.10;95.90
55634;DHT22;41504;53.162;6.788;2023-05-23T02:10:03;13.00;95.90
55634;DHT22;41504;53.162;6.788;2023-05-23T02:12:29;13.00;96.00
55634;DHT22;41504;53.162;6.788;2023-05-23T02:14:55;13.00;96.00
55634;DHT22;41504;53.162;6.788;2023-05-23T02:17:21;12.90;96.10
55634;DHT22;41504;53.162;6.788;2023-05-23T02:19:47;12.90;96.10
55634;DHT22;41504;53.162;6.788;2023-05-23T02:22:13;13.00;96.10
55634;DHT22;41504;53.162;6.788;2023-05-23T02:24:39;13.00;95.90
55634;DHT22;41504;53.162;6.788;2023-05-23T02:27:05;12.90;95.90
55634;DHT22;41504;53.162;6.788;2023-05-23T02:29:31;12.90;95.90
55634;DHT22;41504;53.162;6.788;2023-05-23T02:31:57;12.90;95.90
55634;DHT22;41504;53.162;6.788;2023-05-23T02:34:22;12.80;95.90
55634;DHT22;41504;53.162;6.788;2023-05-23T02:36:48;12.80;95.80
55634;DHT22;41504;53.162;6.788;2023-05-23T02:39:14;12.70;95.80
55634;DHT22;41504;53.162;6.788;2023-05-23T02:41:40;12.70;96.00
55634;DHT22;41504;53.162;6.788;2023-05-23T02:44:05;12.70;96.00
55634;DHT22;41504;53.162;6.788;2023-05-23T02:46:31;12.60;96.00
55634;DHT22;41504;53.162;6.788;2023-05-23T02:48:57;12.60;96.10
55634;DHT22;41504;53.162;6.788;2023-05-23T02:51:23;12.50;96.20
55634;DHT22;41504;53.162;6.788;2023-05-23T02:53:48;12.50;96.20
55634;DHT22;41504;53.162;6.788;2023-05-23T02:56:14;12.50;96.30
55634;DHT22;41504;53.162;6.788;2023-05-23T02:58:40;12.40;96.30
55634;DHT22;41504;53.162;6.788;2023-05-23T03:01:06;12.30;96.60
55634;DHT22;41504;53.162;6.788;2023-05-23T03:03:33;12.20;96.70
55634;DHT22;41504;53.162;6.788;2023-05-23T03:06:01;12.10;97.00
55634;DHT22;41504;53.162;6.788;2023-05-23T03:08:27;12.10;96.90
55634;DHT22;41504;53.162;6.788;2023-05-23T03:10:53;12.00;97.00
55634;DHT22;41504;53.162;6.788;2023-05-23T03:13:19;12.00;97.20
55634;DHT22;41504;53.162;6.788;2023-05-23T03:15:45;11.90;97.30
55634;DHT22;41504;53.162;6.788;2023-05-23T03:18:10;11.90;97.40
55634;DHT22;41504;53.162;6.788;2023-05-23T03:20:37;11.80;97.50
55634;DHT22;41504;53.162;6.788;2023-05-23T03:23:03;11.80;97.60
55634;DHT22;41504;53.162;6.788;2023-05-23T03:25:28;11.80;97.60
55634;DHT22;41504;53.162;6.788;2023-05-23T03:27:54;11.80;97.60
55634;DHT22;41504;53.162;6.788;2023-05-23T03:30:20;11.80;97.60
55634;DHT22;41504;53.162;6.788;2023-05-23T03:32:46;11.80;97.50
55634;DHT22;41504;53.162;6.788;2023-05-23T03:35:12;11.80;97.50
55634;DHT22;41504;53.162;6.788;2023-05-23T03:37:38;11.80;97.40
55634;DHT22;41504;53.162;6.788;2023-05-23T03:40:04;11.90;97.20
55634;DHT22;41504;53.162;6.788;2023-05-23T03:42:31;11.90;97.10
55634;DHT22;41504;53.162;6.788;2023-05-23T03:44:57;11.90;97.10
55634;DHT22;41504;53.162;6.788;2023-05-23T03:47:23;11.90;97.20
55634;DHT22;41504;53.162;6.788;2023-05-23T03:49:49;12.00;97.10
55634;DHT22;41504;53.162;6.788;2023-05-23T03:52:15;12.00;97.00
55634;DHT22;41504;53.162;6.788;2023-05-23T03:54:40;12.00;97.10
55634;DHT22;41504;53.162;6.788;2023-05-23T03:57:06;12.00;97.00
55634;DHT22;41504;53.162;6.788;2023-05-23T03:59:33;12.00;97.00
55634;DHT22;41504;53.162;6.788;2023-05-23T04:01:58;12.00;97.10
55634;DHT22;41504;53.162;6.788;2023-05-23T04:04:29;12.00;97.00
55634;DHT22;41504;53.162;6.788;2023-05-23T04:06:55;12.00;97.00
55634;DHT22;41504;53.162;6.788;2023-05-23T04:09:22;11.90;97.00
55634;DHT22;41504;53.162;6.788;2023-05-23T04:11:48;11.90;97.10
55634;DHT22;41504;53.162;6.788;2023-05-23T04:14:14;11.90;97.00
55634;DHT22;41504;53.162;6.788;2023-05-23T04:16:40;11.90;97.00
55634;DHT22;41504;53.162;6.788;2023-05-23T04:19:07;11.80;97.20
55634;DHT22;41504;53.162;6.788;2023-05-23T04:21:33;11.70;97.20
55634;DHT22;41504;53.162;6.788;2023-05-23T04:24:00;11.80;97.30
55634;DHT22;41504;53.162;6.788;2023-05-23T04:26:25;11.70;97.30
55634;DHT22;41504;53.162;6.788;2023-05-23T04:28:51;11.80;97.10
55634;DHT22;41504;53.162;6.788;2023-05-23T04:31:19;11.80;97.10
55634;DHT22;41504;53.162;6.788;2023-05-23T04:33:47;11.80;97.10
55634;DHT22;41504;53.162;6.788;2023-05-23T04:36:13;11.80;96.90
55634;DHT22;41504;53.162;6.788;2023-05-23T04:38:39;11.80;96.90
55634;DHT22;41504;53.162;6.788;2023-05-23T04:41:08;11.80;96.80
55634;DHT22;41504;53.162;6.788;2023-05-23T04:43:37;11.70;96.80
55634;DHT22;41504;53.162;6.788;2023-05-23T04:46:08;11.80;96.50
55634;DHT22;41504;53.162;6.788;2023-05-23T04:48:35;11.80;96.40
55634;DHT22;41504;53.162;6.788;2023-05-23T04:51:01;11.80;96.50
55634;DHT22;41504;53.162;6.788;2023-05-23T04:53:33;11.80;96.40
55634;DHT22;41504;53.162;6.788;2023-05-23T04:55:59;11.80;96.40
55634;DHT22;41504;53.162;6.788;2023-05-23T04:58:25;11.80;96.30
55634;DHT22;41504;53.162;6.788;2023-05-23T05:00:51;11.80;96.20
55634;DHT22;41504;53.162;6.788;2023-05-23T05:03:17;11.80;96.20
55634;DHT22;41504;53.162;6.788;2023-05-23T05:05:43;11.90;96.10
55634;DHT22;41504;53.162;6.788;2023-05-23T05:08:08;11.80;96.20
55634;DHT22;41504;53.162;6.788;2023-05-23T05:10:34;11.80;96.10
55634;DHT22;41504;53.162;6.788;2023-05-23T05:13:00;11.80;96.10
55634;DHT22;41504;53.162;6.788;2023-05-23T05:15:25;11.70;96.30
55634;DHT22;41504;53.162;6.788;2023-05-23T05:17:51;11.70;96.40
55634;DHT22;41504;53.162;6.788;2023-05-23T05:20:17;11.60;96.50
55634;DHT22;41504;53.162;6.788;2023-05-23T05:22:42;11.60;96.60
55634;DHT22;41504;53.162;6.788;2023-05-23T05:25:09;11.60;96.70
55634;DHT22;41504;53.162;6.788;2023-05-23T05:27:35;11.60;96.70
55634;DHT22;41504;53.162;6.788;2023-05-23T05:30:08;11.50;96.80
55634;DHT22;41504;53.162;6.788;2023-05-23T05:32:34;11.40;96.90
55634;DHT22;41504;53.162;6.788;2023-05-23T05:35:00;11.30;97.00
55634;DHT22;41504;53.162;6.788;2023-05-23T05:37:26;11.20;97.30
55634;DHT22;41504;53.162;6.788;2023-05-23T05:39:53;11.20;97.20
55634;DHT22;41504;53.162;6.788;2023-05-23T05:42:22;11.10;97.00
55634;DHT22;41504;53.162;6.788;2023-05-23T05:44:48;11.10;97.10
55634;DHT22;41504;53.162;6.788;2023-05-23T05:47:14;11.10;96.90
55634;DHT22;41504;53.162;6.788;2023-05-23T05:49:40;11.00;96.90
55634;DHT22;41504;53.162;6.788;2023-05-23T05:52:07;11.10;96.70
55634;DHT22;41504;53.162;6.788;2023-05-23T05:54:33;11.10;96.40
55634;DHT22;41504;53.162;6.788;2023-05-23T05:56:59;11.10;96.00
55634;DHT22;41504;53.162;6.788;2023-05-23T05:59:25;11.10;95.90
55634;DHT22;41504;53.162;6.788;2023-05-23T06:01:51;11.10;95.80
55634;DHT22;41504;53.162;6.788;2023-05-23T06:04:17;11.20;95.50
55634;DHT22;41504;53.162;6.788;2023-05-23T06:06:43;11.20;95.10
55634;DHT22;41504;53.162;6.788;2023-05-23T06:09:09;11.20;94.90
55634;DHT22;41504;53.162;6.788;2023-05-23T06:11:35;11.20;94.90
55634;DHT22;41504;53.162;6.788;2023-05-23T06:14:05;11.20;94.90
55634;DHT22;41504;53.162;6.788;2023-05-23T06:16:31;11.20;94.90
55634;DHT22;41504;53.162;6.788;2023-05-23T06:18:56;11.20;94.50
55634;DHT22;41504;53.162;6.788;2023-05-23T06:21:22;11.20;94.50
55634;DHT22;41504;53.162;6.788;2023-05-23T06:23:48;11.20;94.70
55634;DHT22;41504;53.162;6.788;2023-05-23T06:26:13;11.20;94.50
55634;DHT22;41504;53.162;6.788;2023-05-23T06:28:39;11.20;94.70
55634;DHT22;41504;53.162;6.788;2023-05-23T06:31:05;11.20;94.60
55634;DHT22;41504;53.162;6.788;2023-05-23T06:33:31;11.10;94.50
55634;DHT22;41504;53.162;6.788;2023-05-23T06:35:57;11.10;94.30
55634;DHT22;41504;53.162;6.788;2023-05-23T06:38:26;11.10;94.60
55634;DHT22;41504;53.162;6.788;2023-05-23T06:40:52;11.20;94.50
55634;DHT22;41504;53.162;6.788;2023-05-23T06:43:18;11.10;94.30
55634;DHT22;41504;53.162;6.788;2023-05-23T06:45:45;11.10;94.20
55634;DHT22;41504;53.162;6.788;2023-05-23T06:48:12;11.10;93.80
55634;DHT22;41504;53.162;6.788;2023-05-23T06:50:38;11.20;93.00
55634;DHT22;41504;53.162;6.788;2023-05-23T06:53:04;11.10;92.80
55634;DHT22;41504;53.162;6.788;2023-05-23T06:55:30;11.10;93.10
55634;DHT22;41504;53.162;6.788;2023-05-23T06:57:59;11.20;92.70
55634;DHT22;41504;53.162;6.788;2023-05-23T07:00:25;11.20;92.20
55634;DHT22;41504;53.162;6.788;2023-05-23T07:02:51;11.30;92.50
55634;DHT22;41504;53.162;6.788;2023-05-23T07:05:17;11.20;92.00
55634;DHT22;41504;53.162;6.788;2023-05-23T07:07:43;11.30;91.60
55634;DHT22;41504;53.162;6.788;2023-05-23T07:10:09;11.20;91.50
55634;DHT22;41504;53.162;6.788;2023-05-23T07:12:45;11.20;91.40
55634;DHT22;41504;53.162;6.788;2023-05-23T07:15:33;11.30;90.80
55634;DHT22;41504;53.162;6.788;2023-05-23T07:17:59;11.30;90.70
55634;DHT22;41504;53.162;6.788;2023-05-23T07:20:25;11.40;90.40
55634;DHT22;41504;53.162;6.788;2023-05-23T07:22:50;11.40;90.40
55634;DHT22;41504;53.162;6.788;2023-05-23T07:25:17;11.40;90.10
55634;DHT22;41504;53.162;6.788;2023-05-23T07:27:43;11.50;90.00
55634;DHT22;41504;53.162;6.788;2023-05-23T07:30:09;11.50;90.40
55634;DHT22;41504;53.162;6.788;2023-05-23T07:32:35;11.40;90.00
55634;DHT22;41504;53.162;6.788;2023-05-23T07:35:01;11.50;90.30
55634;DHT22;41504;53.162;6.788;2023-05-23T07:37:27;11.50;90.50
55634;DHT22;41504;53.162;6.788;2023-05-23T07:39:53;11.40;90.40
55634;DHT22;41504;53.162;6.788;2023-05-23T07:42:19;11.40;88.60
55634;DHT22;41504;53.162;6.788;2023-05-23T07:44:45;11.40;88.50
55634;DHT22;41504;53.162;6.788;2023-05-23T07:47:10;11.40;89.30
55634;DHT22;41504;53.162;6.788;2023-05-23T07:49:36;11.30;88.80
55634;DHT22;41504;53.162;6.788;2023-05-23T07:52:02;11.30;89.30
55634;DHT22;41504;53.162;6.788;2023-05-23T07:54:28;11.40;88.90
55634;DHT22;41504;53.162;6.788;2023-05-23T07:56:54;11.50;87.70
55634;DHT22;41504;53.162;6.788;2023-05-23T07:59:20;11.50;87.60
55634;DHT22;41504;53.162;6.788;2023-05-23T08:01:53;11.50;87.20
55634;DHT22;41504;53.162;6.788;2023-05-23T08:04:19;11.80;87.30
55634;DHT22;41504;53.162;6.788;2023-05-23T08:06:50;11.60;87.60
55634;DHT22;41504;53.162;6.788;2023-05-23T08:09:21;11.70;87.00
55634;DHT22;41504;53.162;6.788;2023-05-23T08:11:47;11.80;86.80
55634;DHT22;41504;53.162;6.788;2023-05-23T08:14:16;11.90;87.30
55634;DHT22;41504;53.162;6.788;2023-05-23T08:16:42;12.10;86.50
55634;DHT22;41504;53.162;6.788;2023-05-23T08:19:08;12.20;85.10
55634;DHT22;41504;53.162;6.788;2023-05-23T08:21:34;12.20;84.90
55634;DHT22;41504;53.162;6.788;2023-05-23T08:24:01;12.30;83.80
55634;DHT22;41504;53.162;6.788;2023-05-23T08:26:29;12.30;83.30
55634;DHT22;41504;53.162;6.788;2023-05-23T08:29:02;12.30;83.70
55634;DHT22;41504;53.162;6.788;2023-05-23T08:31:29;12.20;84.40
55634;DHT22;41504;53.162;6.788;2023-05-23T08:34:04;12.30;84.30
55634;DHT22;41504;53.162;6.788;2023-05-23T08:36:30;12.20;84.10
55634;DHT22;41504;53.162;6.788;2023-05-23T08:39:02;12.20;84.00
55634;DHT22;41504;53.162;6.788;2023-05-23T08:41:29;12.20;84.10
55634;DHT22;41504;53.162;6.788;2023-05-23T08:43:56;12.30;83.10
55634;DHT22;41504;53.162;6.788;2023-05-23T08:46:22;12.40;81.30
55634;DHT22;41504;53.162;6.788;2023-05-23T08:48:54;12.40;81.00
55634;DHT22;41504;53.162;6.788;2023-05-23T08:51:27;12.40;79.20
55634;DHT22;41504;53.162;6.788;2023-05-23T08:53:53;12.50;80.40
55634;DHT22;41504;53.162;6.788;2023-05-23T08:56:22;12.50;80.70
55634;DHT22;41504;53.162;6.788;2023-05-23T08:58:49;12.60;80.60
55634;DHT22;41504;53.162;6.788;2023-05-23T09:01:21;12.60;79.00
55634;DHT22;41504;53.162;6.788;2023-05-23T09:03:48;12.70;80.60
55634;DHT22;41504;53.162;6.788;2023-05-23T09:06:15;12.80;81.00
55634;DHT22;41504;53.162;6.788;2023-05-23T09:08:46;12.80;79.30
55634;DHT22;41504;53.162;6.788;2023-05-23T09:11:12;12.70;80.30
55634;DHT22;41504;53.162;6.788;2023-05-23T09:13:44;12.70;80.40
55634;DHT22;41504;53.162;6.788;2023-05-23T09:16:10;12.70;80.00
55634;DHT22;41504;53.162;6.788;2023-05-23T09:18:38;12.70;78.90
55634;DHT22;41504;53.162;6.788;2023-05-23T09:21:05;12.50;80.00
55634;DHT22;41504;53.162;6.788;2023-05-23T09:23:33;12.60;79.80
55634;DHT22;41504;53.162;6.788;2023-05-23T09:26:03;12.50;80.30
55634;DHT22;41504;53.162;6.788;2023-05-23T09:28:33;12.40;79.20
55634;DHT22;41504;53.162;6.788;2023-05-23T09:31:04;12.30;80.30
55634;DHT22;41504;53.162;6.788;2023-05-23T09:33:38;12.30;79.70
55634;DHT22;41504;53.162;6.788;2023-05-23T09:36:06;12.30;79.70
55634;DHT22;41504;53.162;6.788;2023-05-23T09:38:37;12.30;79.90
55634;DHT22;41504;53.162;6.788;2023-05-23T09:41:04;12.30;79.70
55634;DHT22;41504;53.162;6.788;2023-05-23T09:43:33;12.40;79.70
55634;DHT22;41504;53.162;6.788;2023-05-23T09:46:11;12.40;80.40
55634;DHT22;41504;53.162;6.788;2023-05-23T09:48:37;12.50;79.10
55634;DHT22;41504;53.162;6.788;2023-05-23T09:51:08;12.60;78.10
55634;DHT22;41504;53.162;6.788;2023-05-23T09:53:35;12.60;78.60
55634;DHT22;41504;53.162;6.788;2023-05-23T09:56:10;12.80;79.00
55634;DHT22;41504;53.162;6.788;2023-05-23T09:58:37;12.90;77.80
55634;DHT22;41504;53.162;6.788;2023-05-23T10:01:06;12.80;77.00
55634;DHT22;41504;53.162;6.788;2023-05-23T10:03:48;12.90;76.80
55634;DHT22;41504;53.162;6.788;2023-05-23T10:09:03;13.00;76.20
55634;DHT22;41504;53.162;6.788;2023-05-23T10:14:08;13.00;75.60
55634;DHT22;41504;53.162;6.788;2023-05-23T10:19:33;13.00;75.80
55634;DHT22;41504;53.162;6.788;2023-05-23T10:22:03;13.00;76.80
55634;DHT22;41504;53.162;6.788;2023-05-23T10:24:29;13.10;75.00
55634;DHT22;41504;53.162;6.788;2023-05-23T10:27:14;13.10;74.80
55634;DHT22;41504;53.162;6.788;2023-05-23T10:30:04;13.20;74.20
55634;DHT22;41504;53.162;6.788;2023-05-23T10:32:31;13.30;72.50
55634;DHT22;41504;53.162;6.788;2023-05-23T10:41:09;13.00;72.30
55634;DHT22;41504;53.162;6.788;2023-05-23T10:44:01;12.90;72.30
55634;DHT22;41504;53.162;6.788;2023-05-23T10:50:36;13.20;73.00
55634;DHT22;41504;53.162;6.788;2023-05-23T10:53:15;13.50;72.80
55634;DHT22;41504;53.162;6.788;2023-05-23T10:55:50;13.40;71.80
55634;DHT22;41504;53.162;6.788;2023-05-23T10:58:23;13.40;71.60
55634;DHT22;41504;53.162;6.788;2023-05-23T11:00:53;13.30;73.60
55634;DHT22;41504;53.162;6.788;2023-05-23T11:06:41;13.30;72.70
55634;DHT22;41504;53.162;6.788;2023-05-23T11:09:14;13.30;72.70
55634;DHT22;41504;53.162;6.788;2023-05-23T11:11:50;13.30;72.50
55634;DHT22;41504;53.162;6.788;2023-05-23T11:14:30;13.40;73.50
55634;DHT22;41504;53.162;6.788;2023-05-23T11:20:18;13.70;71.90
55634;DHT22;41504;53.162;6.788;2023-05-23T11:23:02;13.80;72.10
55634;DHT22;41504;53.162;6.788;2023-05-23T11:25:42;13.80;71.10
55634;DHT22;41504;53.162;6.788;2023-05-23T11:28:10;14.00;69.40
55634;DHT22;41504;53.162;6.788;2023-05-23T11:30:36;13.90;69.20
55634;DHT22;41504;53.162;6.788;2023-05-23T11:33:10;13.90;69.80
55634;DHT22;41504;53.162;6.788;2023-05-23T11:35:41;13.90;68.00
55634;DHT22;41504;53.162;6.788;2023-05-23T11:38:08;13.80;67.70
55634;DHT22;41504;53.162;6.788;2023-05-23T11:40:41;13.80;68.80
55634;DHT22;41504;53.162;6.788;2023-05-23T11:43:16;13.90;68.90
55634;DHT22;41504;53.162;6.788;2023-05-23T11:45:44;13.90;68.00
55634;DHT22;41504;53.162;6.788;2023-05-23T11:48:14;13.90;69.30
55634;DHT22;41504;53.162;6.788;2023-05-23T11:50:47;13.90;66.60
55634;DHT22;41504;53.162;6.788;2023-05-23T11:53:14;13.80;66.10
55634;DHT22;41504;53.162;6.788;2023-05-23T11:55:56;13.80;67.50
55634;DHT22;41504;53.162;6.788;2023-05-23T11:58:36;13.90;65.90
55634;DHT22;41504;53.162;6.788;2023-05-23T12:01:10;14.00;65.20
55634;DHT22;41504;53.162;6.788;2023-05-23T12:03:50;13.90;66.60
55634;DHT22;41504;53.162;6.788;2023-05-23T12:06:20;13.90;66.30
55634;DHT22;41504;53.162;6.788;2023-05-23T12:08:47;13.80;64.50
55634;DHT22;41504;53.162;6.788;2023-05-23T12:11:12;13.80;65.50
55634;DHT22;41504;53.162;6.788;2023-05-23T12:13:40;13.90;66.00
55634;DHT22;41504;53.162;6.788;2023-05-23T12:16:06;13.80;66.80
55634;DHT22;41504;53.162;6.788;2023-05-23T12:18:32;13.80;67.90
55634;DHT22;41504;53.162;6.788;2023-05-23T12:20:59;13.90;67.60
55634;DHT22;41504;53.162;6.788;2023-05-23T12:23:26;13.90;68.80
55634;DHT22;41504;53.162;6.788;2023-05-23T12:25:53;14.00;69.60
55634;DHT22;41504;53.162;6.788;2023-05-23T12:28:20;14.30;68.80
55634;DHT22;41504;53.162;6.788;2023-05-23T12:30:47;14.60;68.00
55634;DHT22;41504;53.162;6.788;2023-05-23T12:33:14;14.70;65.60
55634;DHT22;41504;53.162;6.788;2023-05-23T12:35:45;14.60;65.70
55634;DHT22;41504;53.162;6.788;2023-05-23T12:38:17;14.60;64.60
55634;DHT22;41504;53.162;6.788;2023-05-23T12:40:44;14.60;63.90
55634;DHT22;41504;53.162;6.788;2023-05-23T12:43:10;14.60;64.20
55634;DHT22;41504;53.162;6.788;2023-05-23T12:45:36;14.70;65.20
55634;DHT22;41504;53.162;6.788;2023-05-23T12:48:03;14.60;65.10
55634;DHT22;41504;53.162;6.788;2023-05-23T12:50:32;14.30;66.40
55634;DHT22;41504;53.162;6.788;2023-05-23T12:52:58;14.20;67.50
55634;DHT22;41504;53.162;6.788;2023-05-23T12:55:27;14.30;67.60
55634;DHT22;41504;53.162;6.788;2023-05-23T12:57:53;14.40;66.50
55634;DHT22;41504;53.162;6.788;2023-05-23T13:00:25;14.20;65.60
55634;DHT22;41504;53.162;6.788;2023-05-23T13:02:54;14.10;66.10
55634;DHT22;41504;53.162;6.788;2023-05-23T13:05:30;14.20;66.80
55634;DHT22;41504;53.162;6.788;2023-05-23T13:07:56;14.10;66.20
55634;DHT22;41504;53.162;6.788;2023-05-23T13:10:24;14.00;65.70
55634;DHT22;41504;53.162;6.788;2023-05-23T13:12:53;14.00;65.60
55634;DHT22;41504;53.162;6.788;2023-05-23T13:15:19;14.10;66.20
55634;DHT22;41504;53.162;6.788;2023-05-23T13:17:45;14.30;65.70
55634;DHT22;41504;53.162;6.788;2023-05-23T13:20:11;14.50;64.10
55634;DHT22;41504;53.162;6.788;2023-05-23T13:22:39;14.50;63.50
55634;DHT22;41504;53.162;6.788;2023-05-23T13:25:06;14.50;63.30
55634;DHT22;41504;53.162;6.788;2023-05-23T13:27:33;14.60;62.80
55634;DHT22;41504;53.162;6.788;2023-05-23T13:29:59;14.80;62.80
55634;DHT22;41504;53.162;6.788;2023-05-23T13:32:25;14.90;62.80
55634;DHT22;41504;53.162;6.788;2023-05-23T13:34:51;14.80;61.20
55634;DHT22;41504;53.162;6.788;2023-05-23T13:37:17;14.60;61.50
55634;DHT22;41504;53.162;6.788;2023-05-23T13:39:43;14.60;61.70
55634;DHT22;41504;53.162;6.788;2023-05-23T13:42:09;14.50;62.80
55634;DHT22;41504;53.162;6.788;2023-05-23T13:44:35;14.60;62.00
55634;DHT22;41504;53.162;6.788;2023-05-23T13:47:12;14.70;62.10
55634;DHT22;41504;53.162;6.788;2023-05-23T13:49:38;14.90;61.00
55634;DHT22;41504;53.162;6.788;2023-05-23T13:52:05;14.70;60.50
55634;DHT22;41504;53.162;6.788;2023-05-23T13:54:31;14.70;61.80
55634;DHT22;41504;53.162;6.788;2023-05-23T13:56:57;14.90;61.80
55634;DHT22;41504;53.162;6.788;2023-05-23T13:59:26;15.00;58.60
55634;DHT22;41504;53.162;6.788;2023-05-23T14:01:52;14.90;57.10
55634;DHT22;41504;53.162;6.788;2023-05-23T14:04:21;14.80;57.10
55634;DHT22;41504;53.162;6.788;2023-05-23T14:06:48;14.70;58.70
55634;DHT22;41504;53.162;6.788;2023-05-23T14:09:15;14.80;57.80
55634;DHT22;41504;53.162;6.788;2023-05-23T14:11:41;14.80;58.70
55634;DHT22;41504;53.162;6.788;2023-05-23T14:14:07;14.50;60.20
55634;DHT22;41504;53.162;6.788;2023-05-23T14:16:35;14.30;62.10
55634;DHT22;41504;53.162;6.788;2023-05-23T14:19:01;14.10;62.90
55634;DHT22;41504;53.162;6.788;2023-05-23T14:21:27;14.10;60.50
55634;DHT22;41504;53.162;6.788;2023-05-23T14:23:53;14.30;60.50
55634;DHT22;41504;53.162;6.788;2023-05-23T14:26:21;14.40;59.30
55634;DHT22;41504;53.162;6.788;2023-05-23T14:28:47;14.60;57.60
55634;DHT22;41504;53.162;6.788;2023-05-23T14:31:13;14.50;56.30
55634;DHT22;41504;53.162;6.788;2023-05-23T14:33:39;14.30;57.30
55634;DHT22;41504;53.162;6.788;2023-05-23T14:36:05;14.30;58.50
55634;DHT22;41504;53.162;6.788;2023-05-23T14:38:31;14.20;59.80
55634;DHT22;41504;53.162;6.788;2023-05-23T14:40:57;14.10;60.20
55634;DHT22;41504;53.162;6.788;2023-05-23T14:43:24;14.00;60.50
55634;DHT22;41504;53.162;6.788;2023-05-23T14:45:56;13.90;61.00
55634;DHT22;41504;53.162;6.788;2023-05-23T14:48:22;13.80;59.70
55634;DHT22;41504;53.162;6.788;2023-05-23T14:50:50;13.80;60.20
55634;DHT22;41504;53.162;6.788;2023-05-23T14:53:16;13.90;60.80
55634;DHT22;41504;53.162;6.788;2023-05-23T14:55:46;13.90;60.90
55634;DHT22;41504;53.162;6.788;2023-05-23T14:58:14;14.00;61.40
55634;DHT22;41504;53.162;6.788;2023-05-23T15:00:40;14.10;60.30
55634;DHT22;41504;53.162;6.788;2023-05-23T15:03:06;14.20;58.40
55634;DHT22;41504;53.162;6.788;2023-05-23T15:05:33;14.20;58.30
55634;DHT22;41504;53.162;6.788;2023-05-23T15:07:59;14.00;58.70
55634;DHT22;41504;53.162;6.788;2023-05-23T15:10:25;13.90;59.60
55634;DHT22;41504;53.162;6.788;2023-05-23T15:12:51;13.80;60.00
55634;DHT22;41504;53.162;6.788;2023-05-23T15:15:17;13.70;60.20
55634;DHT22;41504;53.162;6.788;2023-05-23T15:17:47;13.70;61.20
55634;DHT22;41504;53.162;6.788;2023-05-23T15:20:13;13.70;61.30
55634;DHT22;41504;53.162;6.788;2023-05-23T15:22:40;13.90;61.20
55634;DHT22;41504;53.162;6.788;2023-05-23T15:25:07;14.10;60.60
55634;DHT22;41504;53.162;6.788;2023-05-23T15:27:33;14.10;59.70
55634;DHT22;41504;53.162;6.788;2023-05-23T15:29:59;14.00;59.40
55634;DHT22;41504;53.162;6.788;2023-05-23T15:32:25;13.90;58.00
55634;DHT22;41504;53.162;6.788;2023-05-23T15:34:51;13.90;59.30
55634;DHT22;41504;53.162;6.788;2023-05-23T15:37:23;13.90;59.90
55634;DHT22;41504;53.162;6.788;2023-05-23T15:39:49;14.00;59.70
55634;DHT22;41504;53.162;6.788;2023-05-23T15:42:15;14.10;59.70
55634;DHT22;41504;53.162;6.788;2023-05-23T15:44:43;14.20;59.30
55634;DHT22;41504;53.162;6.788;2023-05-23T15:47:09;14.30;59.50
55634;DHT22;41504;53.162;6.788;2023-05-23T15:49:35;14.40;59.40
55634;DHT22;41504;53.162;6.788;2023-05-23T15:52:01;14.20;58.90
55634;DHT22;41504;53.162;6.788;2023-05-23T15:54:30;13.90;59.60
55634;DHT22;41504;53.162;6.788;2023-05-23T15:56:58;13.60;59.00
55634;DHT22;41504;53.162;6.788;2023-05-23T15:59:30;13.50;59.90
55634;DHT22;41504;53.162;6.788;2023-05-23T16:01:56;13.40;61.00
55634;DHT22;41504;53.162;6.788;2023-05-23T16:04:22;13.30;61.70